createdAt,value
2017-11-25T00:00:58.606Z,6.67
2017-11-25T00:03:26.439Z,7.63
2017-11-25T00:05:54.307Z,7.53
2017-11-25T00:08:22.228Z,7.23
2017-11-25T00:10:50.078Z,7.27
2017-11-25T00:13:18.672Z,6.53
2017-11-25T00:15:46.511Z,8.27
2017-11-25T00:18:14.402Z,7.10
2017-11-25T00:20:42.278Z,8.00
2017-11-25T00:23:10.214Z,7.63
2017-11-25T00:25:38.816Z,9.23
2017-11-25T00:28:06.708Z,10.60
2017-11-25T00:30:34.743Z,11.87
2017-11-25T00:33:03.452Z,14.47
2017-11-25T00:35:31.375Z,13.40
2017-11-25T00:37:59.267Z,14.10
2017-11-25T00:40:27.100Z,15.23
2017-11-25T00:42:54.905Z,16.00
2017-11-25T00:45:22.719Z,17.80
2017-11-25T00:47:50.588Z,15.07
2017-11-25T00:50:18.443Z,13.40
2017-11-25T00:52:46.325Z,13.63
2017-11-25T00:55:14.165Z,13.20
2017-11-25T00:57:42.021Z,15.00
2017-11-25T01:00:09.878Z,13.87
2017-11-25T01:02:37.749Z,13.30
2017-11-25T01:05:05.751Z,13.35
2017-11-25T01:07:33.653Z,14.00
2017-11-25T01:10:01.558Z,14.00
2017-11-25T01:12:29.863Z,14.43
2017-11-25T01:14:57.722Z,14.10
2017-11-25T01:17:25.558Z,12.30
2017-11-25T01:19:53.435Z,13.30
2017-11-25T01:22:21.280Z,12.30
2017-11-25T01:24:49.094Z,12.33
2017-11-25T01:27:16.945Z,13.10
2017-11-25T01:29:44.777Z,14.00
2017-11-25T01:32:13.030Z,15.20
2017-11-25T01:34:40.949Z,16.37
2017-11-25T01:37:08.820Z,17.80
2017-11-25T01:39:36.751Z,17.17
2017-11-25T01:42:04.622Z,18.87
2017-11-25T01:44:32.481Z,18.50
2017-11-25T01:47:00.419Z,18.10
2017-11-25T01:49:28.265Z,17.93
2017-11-25T01:51:56.196Z,17.33
2017-11-25T01:54:24.049Z,16.10
2017-11-25T01:56:51.990Z,15.80
2017-11-25T01:59:19.914Z,15.70
2017-11-25T02:01:47.738Z,16.07
2017-11-25T02:04:15.615Z,15.37
2017-11-25T02:06:43.641Z,14.90
2017-11-25T02:09:11.472Z,16.23
2017-11-25T02:11:39.374Z,14.73
2017-11-25T02:14:07.333Z,15.07
2017-11-25T02:16:35.244Z,14.47
2017-11-25T02:19:03.181Z,16.53
2017-11-25T02:21:31.944Z,15.50
2017-11-25T02:23:59.862Z,16.90
2017-11-25T02:26:27.690Z,16.47
2017-11-25T02:28:55.568Z,14.90
2017-11-25T02:31:23.585Z,15.10
2017-11-25T02:33:52.492Z,14.30
2017-11-25T02:36:20.505Z,12.57
2017-11-25T02:38:48.491Z,11.80
2017-11-25T02:41:16.552Z,13.50
2017-11-25T02:43:44.595Z,14.53
2017-11-25T02:46:12.751Z,14.30
2017-11-25T02:52:00.128Z,13.27
2017-11-25T02:54:28.141Z,14.27
2017-11-25T02:56:56.224Z,18.20
2017-11-25T02:59:24.188Z,14.80
2017-11-25T03:01:52.058Z,13.77
2017-11-25T03:04:23.103Z,13.40
2017-11-25T03:06:51.069Z,13.63
2017-11-25T03:09:19.003Z,13.10
2017-11-25T03:11:58.739Z,13.60
2017-11-25T03:14:26.720Z,14.83
2017-11-25T03:16:54.613Z,14.17
2017-11-25T03:19:22.540Z,12.90
2017-11-25T03:22:42.081Z,12.30
2017-11-25T03:25:10.566Z,11.17
2017-11-25T03:27:38.470Z,9.43
2017-11-25T03:30:06.366Z,9.90
2017-11-25T03:32:34.249Z,8.00
2017-11-25T03:35:02.113Z,8.00
2017-11-25T03:37:30.014Z,7.63
2017-11-25T03:39:57.886Z,6.37
2017-11-25T03:42:25.855Z,6.20
2017-11-25T03:45:36.409Z,5.90
2017-11-25T03:48:04.497Z,4.97
2017-11-25T03:50:32.541Z,4.57
2017-11-25T03:53:00.466Z,4.57
2017-11-25T03:55:28.423Z,6.40
2017-11-25T04:00:30.621Z,5.90
2017-11-25T04:02:58.522Z,6.67
2017-11-25T04:05:26.424Z,5.10
2017-11-25T04:07:55.631Z,5.57
2017-11-25T04:10:35.774Z,4.80
2017-11-25T04:13:03.704Z,4.27
2017-11-25T04:15:31.552Z,3.90
2017-11-25T04:20:34.313Z,5.70
2017-11-25T04:23:03.336Z,4.10
2017-11-25T04:25:32.374Z,5.07
2017-11-25T04:28:00.216Z,6.10
2017-11-25T04:30:28.087Z,5.83
2017-11-25T04:32:56.500Z,6.03
2017-11-25T04:35:24.400Z,6.20
2017-11-25T04:37:52.253Z,6.73
2017-11-25T04:40:20.182Z,5.63
2017-11-25T04:42:48.095Z,5.60
2017-11-25T04:45:16.066Z,6.55
2017-11-25T04:47:44.187Z,8.13
2017-11-25T04:50:12.090Z,8.90
2017-11-25T04:52:40.060Z,8.33
2017-11-25T04:55:07.969Z,9.40
2017-11-25T04:57:36.027Z,12.17
2017-11-25T05:00:04.010Z,10.60
2017-11-25T05:02:32.267Z,12.30
2017-11-25T05:05:00.160Z,12.90
2017-11-25T05:07:28.052Z,13.03
2017-11-25T05:09:55.988Z,12.30
2017-11-25T05:12:23.931Z,7.60
2017-11-25T05:14:51.915Z,6.57
2017-11-25T05:17:19.769Z,4.70
2017-11-25T05:19:48.684Z,4.90
2017-11-25T05:22:16.616Z,5.20
2017-11-25T05:24:44.506Z,3.90
2017-11-25T05:27:12.403Z,5.13
2017-11-25T05:29:40.273Z,4.07
2017-11-25T05:32:08.169Z,2.77
2017-11-25T05:34:36.026Z,3.60
2017-11-25T05:37:03.845Z,4.33
2017-11-25T05:39:31.790Z,4.37
2017-11-25T05:41:59.769Z,4.70
2017-11-25T05:44:27.600Z,3.43
2017-11-25T05:46:55.428Z,4.07
2017-11-25T05:49:23.349Z,4.13
2017-11-25T05:51:51.346Z,4.17
2017-11-25T05:54:19.293Z,5.00
2017-11-25T05:56:47.257Z,5.07
2017-11-25T05:59:15.109Z,5.10
2017-11-25T06:01:45.033Z,4.80
2017-11-25T06:04:12.878Z,5.43
2017-11-25T06:06:40.757Z,6.10
2017-11-25T06:09:08.614Z,5.60
2017-11-25T06:11:36.534Z,5.47
2017-11-25T06:14:04.423Z,5.27
2017-11-25T06:16:32.289Z,5.10
2017-11-25T06:19:00.147Z,5.40
2017-11-25T06:21:28.092Z,5.70
2017-11-25T06:23:56.317Z,6.70
2017-11-25T06:26:24.214Z,5.90
2017-11-25T06:28:52.117Z,5.90
2017-11-25T06:31:19.979Z,5.77
2017-11-25T06:33:47.873Z,5.40
2017-11-25T06:36:15.781Z,5.50
2017-11-25T06:38:43.744Z,6.40
2017-11-25T06:41:11.566Z,6.30
2017-11-25T06:43:39.473Z,6.80
2017-11-25T06:46:07.340Z,7.40
2017-11-25T06:48:35.169Z,7.67
2017-11-25T06:51:03.153Z,7.87
2017-11-25T06:53:31.040Z,7.03
2017-11-25T06:55:58.878Z,5.50
2017-11-25T06:58:26.802Z,6.40
2017-11-25T07:00:54.653Z,6.57
2017-11-25T07:03:22.545Z,6.30
2017-11-25T07:05:50.437Z,6.47
2017-11-25T07:08:18.305Z,6.80
2017-11-25T07:10:46.834Z,5.87
2017-11-25T07:13:15.663Z,5.93
2017-11-25T07:15:43.759Z,6.07
2017-11-25T07:18:11.585Z,6.03
2017-11-25T07:20:40.505Z,6.40
2017-11-25T07:23:08.325Z,5.73
2017-11-25T07:25:37.014Z,7.00
2017-11-25T07:28:04.910Z,5.70
2017-11-25T07:30:33.619Z,6.80
2017-11-25T07:33:01.406Z,6.47
2017-11-25T07:35:30.100Z,8.13
2017-11-25T07:37:58.665Z,9.23
2017-11-25T07:40:27.365Z,14.20
2017-11-25T07:42:55.309Z,12.70
2017-11-25T07:45:23.197Z,14.00
2017-11-25T07:47:51.864Z,13.60
2017-11-25T07:50:20.954Z,13.90
2017-11-25T07:52:48.859Z,14.70
2017-11-25T07:55:16.753Z,14.50
2017-11-25T07:57:44.586Z,14.20
2017-11-25T08:00:13.150Z,13.73
2017-11-25T08:02:42.609Z,14.00
2017-11-25T08:05:10.390Z,12.67
2017-11-25T08:07:38.239Z,10.93
2017-11-25T08:10:06.988Z,12.60
2017-11-25T08:12:34.828Z,16.20
2017-11-25T08:15:02.619Z,12.70
2017-11-25T08:17:30.476Z,15.50
2017-11-25T08:19:59.133Z,14.87
2017-11-25T08:22:26.977Z,14.43
2017-11-25T08:24:54.795Z,14.10
2017-11-25T08:27:24.288Z,13.90
2017-11-25T08:29:52.942Z,15.47
2017-11-25T08:32:20.855Z,13.60
2017-11-25T08:34:48.763Z,12.80
2017-11-25T08:37:16.594Z,13.57
2017-11-25T08:39:44.487Z,14.33
2017-11-25T08:42:12.289Z,15.10
2017-11-25T08:44:40.985Z,15.37
2017-11-25T08:47:08.904Z,14.97
2017-11-25T08:49:36.759Z,16.00
2017-11-25T08:52:04.817Z,16.60
2017-11-25T08:54:32.721Z,15.30
2017-11-25T08:57:00.535Z,13.97
2017-11-25T08:59:28.409Z,15.97
2017-11-25T09:04:30.768Z,14.47
2017-11-25T09:06:59.804Z,15.40
2017-11-25T09:09:30.058Z,15.00
2017-11-25T09:11:58.298Z,15.03
2017-11-25T09:14:26.298Z,24.20
2017-11-25T09:16:54.183Z,16.47
2017-11-25T09:19:26.197Z,14.60
2017-11-25T09:21:54.025Z,14.38
2017-11-25T09:24:21.879Z,13.67
2017-11-25T09:26:49.794Z,10.80
2017-11-25T09:29:17.739Z,10.80
2017-11-25T09:31:45.627Z,10.10
2017-11-25T09:34:13.782Z,10.02
2017-11-25T09:36:42.432Z,9.93
2017-11-25T09:39:10.362Z,9.77
2017-11-25T09:41:38.233Z,10.10
2017-11-25T09:44:06.431Z,11.47
2017-11-25T09:46:34.421Z,9.77
2017-11-25T09:49:02.296Z,10.07
2017-11-25T09:51:30.170Z,8.90
2017-11-25T09:53:58.809Z,8.10
2017-11-25T09:56:26.694Z,8.33
2017-11-25T09:58:54.481Z,8.37
2017-11-25T10:01:22.445Z,7.70
2017-11-25T10:03:51.086Z,7.73
2017-11-25T10:06:18.897Z,8.90
2017-11-25T10:08:47.527Z,6.93
2017-11-25T10:11:16.408Z,8.10
2017-11-25T10:13:46.408Z,8.57
2017-11-25T10:16:14.966Z,7.97
2017-11-25T10:18:43.673Z,8.60
2017-11-25T10:21:12.273Z,9.33
2017-11-25T10:23:40.064Z,8.87
2017-11-25T10:26:07.835Z,8.80
2017-11-25T10:28:35.661Z,8.90
2017-11-25T10:31:04.178Z,10.70
2017-11-25T10:33:32.057Z,10.27
2017-11-25T10:35:59.912Z,9.50
2017-11-25T10:38:27.766Z,11.07
2017-11-25T10:40:56.580Z,11.90
2017-11-25T10:43:24.444Z,9.80
2017-11-25T10:45:52.316Z,10.55
2017-11-25T10:48:20.176Z,11.50
2017-11-25T10:50:48.102Z,11.43
2017-11-25T10:53:15.975Z,13.13
2017-11-25T10:55:43.884Z,12.40
2017-11-25T10:58:11.837Z,10.48
2017-11-25T11:00:39.808Z,13.07
2017-11-25T11:03:07.718Z,14.20
2017-11-25T11:05:35.620Z,12.60
2017-11-25T11:08:03.729Z,12.80
2017-11-25T11:10:32.389Z,13.95
2017-11-25T11:13:00.201Z,14.30
2017-11-25T11:15:28.774Z,13.00
2017-11-25T11:17:56.724Z,11.27
2017-11-25T11:20:24.600Z,12.00
2017-11-25T11:22:53.334Z,11.90
2017-11-25T11:25:21.152Z,12.00
2017-11-25T11:27:49.089Z,10.90
2017-11-25T11:30:16.986Z,10.40
2017-11-25T11:32:44.947Z,10.00
2017-11-25T11:35:12.860Z,14.90
2017-11-25T11:37:41.703Z,16.47
2017-11-25T11:40:09.584Z,16.50
2017-11-25T11:42:37.370Z,15.80
2017-11-25T11:45:05.916Z,14.77
2017-11-25T11:47:33.752Z,12.83
2017-11-25T11:50:01.543Z,13.00
2017-11-25T11:52:29.337Z,12.30
2017-11-25T11:54:57.950Z,12.70
2017-11-25T11:57:25.825Z,11.00
2017-11-25T11:59:53.648Z,9.40
2017-11-25T12:02:21.783Z,9.43
2017-11-25T12:04:49.627Z,9.93
2017-11-25T12:07:17.524Z,9.53
2017-11-25T12:09:45.462Z,8.37
2017-11-25T12:12:13.290Z,9.07
2017-11-25T12:14:41.945Z,8.93
2017-11-25T12:17:09.829Z,9.93
2017-11-25T12:19:37.657Z,11.43
2017-11-25T12:22:05.519Z,10.60
2017-11-25T12:24:33.488Z,12.53
2017-11-25T12:27:01.416Z,11.93
2017-11-25T12:29:30.109Z,11.03
2017-11-25T12:31:58.780Z,11.80
2017-11-25T12:34:27.350Z,15.53
2017-11-25T12:36:55.334Z,18.03
2017-11-25T12:39:23.179Z,20.27
2017-11-25T12:41:51.865Z,14.90
2017-11-25T12:44:19.846Z,16.10
2017-11-25T12:46:48.575Z,16.80
2017-11-25T12:49:16.890Z,18.67
2017-11-25T12:51:44.789Z,17.83
2017-11-25T12:54:13.424Z,16.70
2017-11-25T12:56:41.297Z,12.00
2017-11-25T12:59:09.141Z,12.13
2017-11-25T13:01:36.961Z,10.33
2017-11-25T13:04:05.622Z,15.47
2017-11-25T13:06:33.482Z,12.50
2017-11-25T13:09:01.654Z,12.83
2017-11-25T13:11:29.596Z,10.50
2017-11-25T13:13:57.504Z,10.83
2017-11-25T13:16:25.401Z,9.57
2017-11-25T13:18:54.872Z,10.30
2017-11-25T13:21:23.645Z,8.50
2017-11-25T13:23:51.565Z,7.63
2017-11-25T13:26:19.365Z,9.33
2017-11-25T13:28:47.187Z,8.67
2017-11-25T13:31:15.146Z,6.93
2017-11-25T13:33:43.892Z,7.30
2017-11-25T13:36:11.775Z,6.90
2017-11-25T13:38:39.704Z,8.63
2017-11-25T13:41:07.637Z,7.03
2017-11-25T13:43:35.630Z,7.10
2017-11-25T13:46:03.618Z,7.83
2017-11-25T13:48:31.528Z,6.60
2017-11-25T13:51:00.234Z,7.80
2017-11-25T13:53:28.890Z,7.20
2017-11-25T13:55:56.845Z,6.97
2017-11-25T13:58:24.769Z,7.20
2017-11-25T14:00:53.780Z,7.43
2017-11-25T14:03:21.648Z,7.50
2017-11-25T14:05:49.797Z,8.03
2017-11-25T14:08:18.009Z,7.53
2017-11-25T14:10:45.940Z,7.37
2017-11-25T14:13:14.550Z,8.67
2017-11-25T14:15:42.634Z,9.00
2017-11-25T14:18:10.636Z,8.30
2017-11-25T14:20:38.760Z,8.37
2017-11-25T14:23:06.631Z,7.37
2017-11-25T14:25:35.399Z,7.63
2017-11-25T14:28:03.230Z,6.97
2017-11-25T14:30:31.197Z,6.73
2017-11-25T14:32:59.150Z,6.30
2017-11-25T14:35:27.047Z,6.07
2017-11-25T14:37:55.709Z,5.60
2017-11-25T14:40:23.658Z,5.83
2017-11-25T14:42:51.612Z,6.80
2017-11-25T14:45:19.528Z,5.53
2017-11-25T14:47:47.378Z,5.90
2017-11-25T14:50:15.218Z,6.80
2017-11-25T14:52:43.058Z,6.50
2017-11-25T14:55:11.050Z,5.87
2017-11-25T14:57:38.993Z,5.80
2017-11-25T15:00:06.814Z,6.43
2017-11-25T15:02:34.717Z,6.07
2017-11-25T15:05:03.306Z,4.97
2017-11-25T15:07:31.113Z,5.50
2017-11-25T15:09:58.938Z,5.80
2017-11-25T15:12:28.192Z,4.90
2017-11-25T15:14:56.181Z,5.20
2017-11-25T15:17:24.900Z,5.30
2017-11-25T15:19:52.784Z,4.10
2017-11-25T15:22:20.632Z,4.50
2017-11-25T15:24:48.539Z,4.40
2017-11-25T15:27:16.410Z,4.63
2017-11-25T15:29:44.292Z,5.00
2017-11-25T15:32:12.177Z,5.70
2017-11-25T15:34:40.810Z,5.28
2017-11-25T15:37:08.820Z,5.77
2017-11-25T15:39:37.455Z,5.50
2017-11-25T15:42:05.330Z,5.90
2017-11-25T15:44:33.287Z,5.50
2017-11-25T15:47:01.363Z,5.80
2017-11-25T15:49:29.183Z,6.57
2017-11-25T15:51:58.129Z,6.50
2017-11-25T15:54:26.043Z,5.47
2017-11-25T15:56:54.820Z,5.27
2017-11-25T15:59:22.771Z,4.50
2017-11-25T16:01:50.677Z,5.53
2017-11-25T16:04:19.261Z,5.53
2017-11-25T16:06:47.826Z,5.60
2017-11-25T16:09:16.459Z,5.13
2017-11-25T16:11:44.379Z,5.70
2017-11-25T16:14:13.016Z,5.83
2017-11-25T16:16:40.894Z,6.20
2017-11-25T16:19:08.714Z,7.03
2017-11-25T16:21:37.356Z,5.83
2017-11-25T16:24:05.308Z,6.73
2017-11-25T16:26:33.249Z,6.03
2017-11-25T16:29:01.183Z,6.23
2017-11-25T16:31:29.793Z,5.37
2017-11-25T16:33:57.733Z,6.50
2017-11-25T16:36:25.716Z,5.33
2017-11-25T16:38:54.363Z,5.60
2017-11-25T16:41:22.250Z,6.40
2017-11-25T16:43:50.980Z,6.67
2017-11-25T16:46:18.840Z,7.10
2017-11-25T16:48:46.978Z,8.23
2017-11-25T16:51:14.859Z,6.40
2017-11-25T16:53:43.513Z,6.83
2017-11-25T16:56:11.358Z,7.83
2017-11-25T16:58:39.365Z,7.47
2017-11-25T17:01:08.081Z,7.87
2017-11-25T17:03:35.915Z,7.40
2017-11-25T17:06:03.834Z,7.40
2017-11-25T17:08:31.749Z,8.50
2017-11-25T17:10:59.584Z,7.93
2017-11-25T17:13:27.445Z,8.50
2017-11-25T17:15:55.341Z,10.00
2017-11-25T17:18:23.307Z,8.63
2017-11-25T17:20:51.110Z,9.23
2017-11-25T17:23:18.901Z,9.20
2017-11-25T17:25:46.723Z,7.70
2017-11-25T17:28:15.302Z,9.30
2017-11-25T17:30:43.967Z,8.20
2017-11-25T17:33:11.786Z,9.33
2017-11-25T17:35:39.613Z,9.43
2017-11-25T17:38:08.487Z,8.60
2017-11-25T17:40:36.307Z,9.70
2017-11-25T17:43:04.404Z,9.57
2017-11-25T17:45:32.298Z,10.23
2017-11-25T17:48:00.456Z,8.90
2017-11-25T17:50:28.279Z,9.73
2017-11-25T17:52:56.357Z,8.80
2017-11-25T17:55:24.172Z,9.23
2017-11-25T17:57:52.022Z,8.90
2017-11-25T18:00:19.944Z,9.23
2017-11-25T18:02:47.913Z,8.67
2017-11-25T18:05:15.768Z,9.00
2017-11-25T18:07:44.379Z,10.07
2017-11-25T18:10:12.272Z,9.80
2017-11-25T18:12:40.090Z,9.10
2017-11-25T18:15:07.883Z,10.00
2017-11-25T18:17:35.749Z,11.20
2017-11-25T18:20:03.613Z,10.83
2017-11-25T18:22:31.414Z,13.33
2017-11-25T18:24:59.255Z,12.57
2017-11-25T18:27:27.101Z,12.87
2017-11-25T18:29:55.031Z,14.10
2017-11-25T18:32:23.650Z,12.90
2017-11-25T18:34:52.271Z,13.90
2017-11-25T18:37:20.080Z,12.60
2017-11-25T18:39:48.000Z,11.97
2017-11-25T18:42:15.988Z,11.53
2017-11-25T18:44:44.687Z,12.70
2017-11-25T18:47:13.285Z,16.47
2017-11-25T18:49:41.095Z,17.17
2017-11-25T18:52:08.937Z,16.97
2017-11-25T18:54:36.790Z,18.90
2017-11-25T18:57:04.681Z,13.20
2017-11-25T18:59:32.575Z,14.03
2017-11-25T19:02:00.424Z,16.57
2017-11-25T19:04:28.309Z,19.60
2017-11-25T19:06:56.187Z,21.40
2017-11-25T19:09:24.760Z,15.80
2017-11-25T19:11:52.586Z,15.37
2017-11-25T19:14:20.518Z,13.03
2017-11-25T19:16:49.253Z,13.73
2017-11-25T19:19:17.101Z,13.43
2017-11-25T19:21:44.980Z,14.20
2017-11-25T19:24:13.698Z,14.67
2017-11-25T19:26:41.509Z,20.50
2017-11-25T19:29:09.388Z,18.53
2017-11-25T19:31:37.977Z,16.50
2017-11-25T19:34:05.871Z,15.07
2017-11-25T19:36:33.741Z,16.05
2017-11-25T19:39:01.583Z,18.93
2017-11-25T19:41:29.541Z,20.20
2017-11-25T19:43:57.407Z,18.43
2017-11-25T19:46:25.312Z,18.00
2017-11-25T19:48:53.123Z,21.43
2017-11-25T19:51:21.720Z,17.63
2017-11-25T19:53:49.589Z,16.60
2017-11-25T19:56:17.441Z,14.70
2017-11-25T19:58:45.260Z,12.83
2017-11-25T20:01:13.149Z,10.90
2017-11-25T20:03:41.001Z,13.17
2017-11-25T20:06:09.106Z,13.70
2017-11-25T20:08:37.150Z,16.53
2017-11-25T20:11:05.737Z,25.33
2017-11-25T20:13:34.389Z,32.90
2017-11-25T20:16:02.304Z,24.30
2017-11-25T20:18:30.134Z,22.83
2017-11-25T20:20:58.022Z,17.20
2017-11-25T20:23:25.856Z,16.20
2017-11-25T20:25:53.715Z,13.77
2017-11-25T20:28:21.561Z,16.10
2017-11-25T20:30:49.351Z,13.33
2017-11-25T20:33:17.145Z,12.53
2017-11-25T20:35:45.815Z,13.43
2017-11-25T20:38:13.605Z,17.07
2017-11-25T20:40:42.255Z,16.67
2017-11-25T20:43:10.152Z,17.27
2017-11-25T20:45:38.749Z,18.27
2017-11-25T20:48:06.686Z,17.63
2017-11-25T20:50:35.296Z,16.13
2017-11-25T20:53:10.604Z,20.97
2017-11-25T20:55:38.425Z,38.70
2017-11-25T20:58:06.272Z,24.63
2017-11-25T21:00:34.160Z,25.57
2017-11-25T21:03:02.100Z,24.47
2017-11-25T21:05:30.800Z,25.00
2017-11-25T21:07:58.737Z,21.67
2017-11-25T21:10:27.253Z,21.60
2017-11-25T21:12:55.209Z,21.60
2017-11-25T21:15:23.395Z,19.53
2017-11-25T21:17:51.336Z,17.73
2017-11-25T21:20:20.158Z,17.93
2017-11-25T21:22:48.342Z,16.33
2017-11-25T21:25:16.145Z,16.70
2017-11-25T21:27:44.298Z,16.90
2017-11-25T21:30:12.142Z,16.53
2017-11-25T21:32:40.196Z,15.77
2017-11-25T21:35:07.992Z,16.00
2017-11-25T21:37:36.756Z,15.57
2017-11-25T21:40:04.647Z,18.80
2017-11-25T21:42:32.441Z,15.20
2017-11-25T21:45:00.248Z,16.03
2017-11-25T21:47:28.177Z,15.23
2017-11-25T21:49:55.969Z,14.00
2017-11-25T21:52:24.560Z,18.97
2017-11-25T21:54:52.716Z,20.07
2017-11-25T21:57:20.652Z,18.10
2017-11-25T21:59:50.295Z,15.17
2017-11-25T22:02:18.899Z,13.70
2017-11-25T22:04:46.713Z,14.97
2017-11-25T22:07:14.559Z,14.00
2017-11-25T22:09:42.430Z,13.10
2017-11-25T22:12:10.448Z,12.97
2017-11-25T22:14:39.192Z,13.27
2017-11-25T22:17:07.090Z,14.00
2017-11-25T22:19:35.665Z,11.23
2017-11-25T22:22:03.475Z,11.57
2017-11-25T22:24:31.373Z,11.77
2017-11-25T22:26:59.167Z,12.43
2017-11-25T22:29:27.892Z,13.37
2017-11-25T22:31:55.754Z,10.53
2017-11-25T22:34:23.637Z,11.07
2017-11-25T22:36:51.544Z,12.03
2017-11-25T22:39:19.464Z,10.53
2017-11-25T22:41:47.365Z,11.17
2017-11-25T22:44:15.205Z,11.40
2017-11-25T22:46:43.096Z,10.77
2017-11-25T22:49:10.947Z,9.87
2017-11-25T22:51:38.754Z,9.93
2017-11-25T22:54:07.305Z,9.93
2017-11-25T22:56:35.102Z,10.87
2017-11-25T22:59:03.653Z,9.73
2017-11-25T23:01:31.524Z,11.80
2017-11-25T23:03:59.314Z,11.03
2017-11-25T23:06:27.881Z,10.40
2017-11-25T23:08:55.720Z,9.70
2017-11-25T23:11:23.605Z,9.40
2017-11-25T23:13:51.552Z,10.17
2017-11-25T23:16:19.467Z,9.43
2017-11-25T23:18:48.046Z,7.27
2017-11-25T23:21:16.673Z,9.13
2017-11-25T23:23:44.542Z,8.63
2017-11-25T23:26:12.359Z,8.40
2017-11-25T23:28:40.947Z,8.97
2017-11-25T23:31:09.535Z,8.90
2017-11-25T23:33:38.111Z,8.43
2017-11-25T23:36:06.735Z,7.83
2017-11-25T23:38:34.833Z,8.63
2017-11-25T23:41:02.837Z,8.60
2017-11-25T23:43:31.401Z,8.50
2017-11-25T23:45:59.326Z,8.90
2017-11-25T23:48:27.201Z,10.17
2017-11-25T23:50:55.018Z,9.73
2017-11-25T23:53:23.625Z,9.60
2017-11-25T23:55:51.489Z,10.00
2017-11-25T23:58:19.288Z,9.83
